Time;durP1;ratioP1;P1;durP2;ratioP2;P2;SDS_P1;SDS_P2;PMS_P1;PMS_P2;Temp;Humidity;BMP_temperature;BMP_pressure;BME280_temperature;BME280_humidity;BME280_pressure;Samples;Min_cycle;Max_cycle;Signal;HPM_P1;HPM_P2
2023/01/14 00:01:42;;;;;;;28.90;17.00;;;;;;;-0.97;75.98;99866.67;107110;1262;71195;-40
2023/01/14 00:04:09;;;;;;;23.70;15.80;;;;;;;-0.97;75.97;99869.45;107103;1258;69884;-40
2023/01/14 02:21:01;;;;;;;31.20;20.10;;;;;;;-1.92;85.41;99858.60;105063;1283;612791;-36
2023/01/14 02:23:35;;;;;;;28.40;18.80;;;;;;;-1.64;83.72;99860.58;106501;1266;211314;-36
2023/01/14 02:26:21;;;;;;;29.70;19.10;;;;;;;-1.73;84.22;99863.44;106791;1266;61389;-35
2023/01/14 02:29:13;;;;;;;30.80;19.60;;;;;;;-1.74;84.37;99863.02;106706;1266;71256;-35
2023/01/14 02:31:45;;;;;;;31.70;20.10;;;;;;;-1.77;84.60;99872.48;106577;1266;70360;-35
2023/01/14 02:34:30;;;;;;;35.90;21.80;;;;;;;-1.81;84.55;99874.03;107094;1259;71883;-35
2023/01/14 02:36:59;;;;;;;37.40;20.50;;;;;;;-1.84;84.47;99869.80;107079;1259;61696;-36
2023/01/14 02:39:52;;;;;;;32.70;20.20;;;;;;;-1.84;83.87;99874.30;106950;1259;59470;-36
2023/01/14 02:45:10;;;;;;;37.50;22.90;;;;;;;-2.00;83.54;99870.52;106884;1259;70493;-36
2023/01/14 02:47:38;;;;;;;37.70;22.40;;;;;;;-2.09;83.68;99868.70;107114;1259;72770;-36
2023/01/14 02:50:08;;;;;;;34.70;21.40;;;;;;;-2.13;83.82;99867.30;106925;1259;60417;-36
2023/01/14 02:52:35;;;;;;;38.00;22.00;;;;;;;-2.11;83.69;99867.30;106902;1259;61288;-36
2023/01/14 02:55:03;;;;;;;39.00;22.20;;;;;;;-2.14;83.79;99870.18;106984;1259;72376;-35
2023/01/14 02:57:53;;;;;;;42.40;23.10;;;;;;;-2.17;84.00;99871.81;107019;1259;67804;-36
2023/01/14 03:00:23;;;;;;;39.30;22.20;;;;;;;-2.23;84.03;99874.51;107025;1259;71789;-36
2023/01/14 03:03:00;;;;;;;34.40;21.10;;;;;;;-2.28;84.27;99874.14;107073;1259;62339;-36
2023/01/14 03:05:44;;;;;;;35.10;22.10;;;;;;;-2.26;83.99;99873.66;106920;1259;59492;-36
2023/01/14 03:08:12;;;;;;;36.40;21.40;;;;;;;-2.27;84.04;99868.25;107031;1259;71041;-36
2023/01/14 03:10:43;;;;;;;35.40;21.70;;;;;;;-2.31;84.13;99877.57;106946;1258;69421;-36
2023/01/14 03:13:33;;;;;;;36.90;21.10;;;;;;;-2.37;84.33;99881.98;106980;1259;73841;-36
2023/01/14 03:16:32;;;;;;;30.40;19.50;;;;;;;-2.43;84.30;99876.64;106908;1259;61012;-37
2023/01/14 03:19:10;;;;;;;33.40;19.20;;;;;;;-2.36;84.20;99890.67;107078;1258;62299;-37
2023/01/14 03:21:43;;;;;;;41.60;21.30;;;;;;;-2.40;84.44;99891.41;106987;1259;72250;-37
2023/01/14 03:24:13;;;;;;;40.20;21.70;;;;;;;-2.43;84.63;99892.90;107027;1263;70292;-37
2023/01/14 03:26:42;;;;;;;36.30;21.10;;;;;;;-2.46;84.67;99889.90;106301;1259;1003737;-37
2023/01/14 03:29:12;;;;;;;24.50;15.40;;;;;;;-2.47;84.83;99895.58;107079;1259;62032;-37
2023/01/14 03:31:42;;;;;;;30.70;18.90;;;;;;;-2.40;84.70;99892.42;107079;1260;61701;-37
2023/01/14 03:34:12;;;;;;;39.10;21.50;;;;;;;-2.35;84.59;99896.00;107091;1262;73453;-37
2023/01/14 03:36:40;;;;;;;40.30;20.90;;;;;;;-2.35;84.54;99892.11;107051;1259;70231;-37
2023/01/14 03:39:11;;;;;;;43.80;21.00;;;;;;;-2.39;84.27;99890.73;106927;1259;73237;-37
2023/01/14 03:44:29;;;;;;;39.80;20.00;;;;;;;-2.51;84.43;99883.04;107048;1258;61988;-37
2023/01/14 03:46:56;;;;;;;33.10;19.80;;;;;;;-2.51;84.26;99883.00;107076;1259;73806;-37
2023/01/14 03:49:23;;;;;;;41.90;21.80;;;;;;;-2.52;84.57;99887.92;106866;1259;70770;-37
2023/01/14 03:51:54;;;;;;;39.00;21.10;;;;;;;-2.53;84.73;99883.58;107083;1259;74911;-37
2023/01/14 03:54:30;;;;;;;34.00;20.30;;;;;;;-2.56;84.72;99883.13;107053;1258;61706;-37
2023/01/14 03:57:05;;;;;;;32.70;19.70;;;;;;;-2.53;84.67;99884.09;107036;1259;59337;-37
2023/01/14 04:00:11;;;;;;;31.80;19.40;;;;;;;-2.48;84.50;99882.41;107015;1258;74523;-37
2023/01/14 04:02:38;;;;;;;31.70;19.80;;;;;;;-2.49;84.55;99885.49;106622;1265;70465;-37
2023/01/14 04:05:06;;;;;;;47.00;19.80;;;;;;;-2.55;84.69;99889.45;106608;1267;73882;-37
2023/01/14 04:07:33;;;;;;;32.00;18.10;;;;;;;-2.60;84.44;99888.41;106411;1273;61050;-36
2023/01/14 04:10:01;;;;;;;29.40;17.60;;;;;;;-2.62;84.50;99893.30;106827;1262;60346;-37
2023/01/14 04:12:28;;;;;;;31.80;18.70;;;;;;;-2.59;84.18;99893.42;107376;1255;74300;-36
2023/01/14 04:17:41;;;;;;;32.60;18.60;;;;;;;-2.74;84.40;99899.05;107241;1260;73977;-36
2023/01/14 04:20:09;;;;;;;27.50;16.40;;;;;;;-2.82;84.74;99903.67;107319;1255;61068;-36
2023/01/14 04:22:36;;;;;;;25.40;16.40;;;;;;;-2.83;84.74;99904.52;107395;1254;61508;-36
2023/01/14 04:25:03;;;;;;;29.10;18.00;;;;;;;-2.76;84.65;99903.91;107368;1254;71892;-36
2023/01/14 04:27:31;;;;;;;30.50;17.50;;;;;;;-2.73;84.68;99898.83;107399;1256;68941;-36
2023/01/14 04:29:58;;;;;;;35.50;18.40;;;;;;;-2.71;84.95;99903.83;107306;1256;74975;-36
2023/01/14 04:32:25;;;;;;;30.70;18.70;;;;;;;-2.72;84.92;99903.71;107271;1256;59666;-36
2023/01/14 04:34:53;;;;;;;30.40;17.90;;;;;;;-2.73;84.97;99906.31;107319;1256;59863;-36
2023/01/14 04:37:20;;;;;;;28.20;18.50;;;;;;;-2.68;84.75;99906.44;107307;1254;74222;-36
2023/01/14 04:39:47;;;;;;;29.60;17.70;;;;;;;-2.59;84.47;99908.33;107398;1256;69127;-37
2023/01/14 04:42:27;;;;;;;31.50;18.30;;;;;;;-2.55;84.32;99907.61;107359;1256;74065;-36
2023/01/14 04:44:55;;;;;;;34.70;19.00;;;;;;;-2.54;84.48;99905.59;107370;1256;60986;-36
2023/01/14 04:47:23;;;;;;;35.00;18.70;;;;;;;-2.53;84.54;99905.29;107382;1259;60189;-36
2023/01/14 04:49:50;;;;;;;37.40;18.20;;;;;;;-2.53;84.49;99908.69;107381;1256;73595;-36
2023/01/14 04:52:17;;;;;;;28.40;16.30;;;;;;;-2.51;84.06;99912.45;107321;1259;70426;-36
2023/01/14 04:54:45;;;;;;;30.40;17.80;;;;;;;-2.48;83.68;99916.80;107364;1254;74756;-36
2023/01/14 04:57:12;;;;;;;39.40;17.30;;;;;;;-2.51;83.75;99919.77;107350;1254;60333;-36
2023/01/14 04:59:39;;;;;;;33.50;17.90;;;;;;;-2.56;83.77;99916.40;107319;1255;59553;-36
2023/01/14 05:02:06;;;;;;;33.30;17.40;;;;;;;-2.61;83.86;99917.52;107258;1259;74439;-36
2023/01/14 05:04:35;;;;;;;32.50;18.30;;;;;;;-2.66;84.04;99923.01;107232;1254;70220;-36
2023/01/14 05:07:02;;;;;;;30.00;16.90;;;;;;;-2.66;83.96;99923.75;107259;1254;70486;-36
2023/01/14 05:09:29;;;;;;;32.30;17.30;;;;;;;-2.64;83.67;99925.69;106506;1254;1003142;-36
2023/01/14 05:11:57;;;;;;;29.30;17.10;;;;;;;-2.66;83.82;99931.61;107337;1257;60200;-36
2023/01/14 05:14:24;;;;;;;28.50;17.00;;;;;;;-2.70;84.01;99932.44;107229;1255;72099;-36
2023/01/14 05:16:51;;;;;;;38.20;17.90;;;;;;;-2.76;84.04;99929.16;106613;1254;1003108;-36
2023/01/14 05:19:21;;;;;;;30.70;16.90;;;;;;;-2.83;84.12;99930.56;107262;1259;74037;-36
2023/01/14 05:21:49;;;;;;;30.60;17.70;;;;;;;-2.82;84.27;99929.61;107327;1259;61915;-36
2023/01/14 05:24:16;;;;;;;27.60;16.30;;;;;;;-2.80;84.40;99931.42;107338;1257;60430;-36
2023/01/14 05:26:43;;;;;;;37.60;16.60;;;;;;;-2.81;84.61;99930.37;107370;1254;71740;-36
2023/01/14 05:29:10;;;;;;;31.70;17.40;;;;;;;-2.84;84.55;99933.37;107294;1256;69834;-36
2023/01/14 05:31:37;;;;;;;31.20;17.30;;;;;;;-2.90;84.65;99929.89;107319;1254;74958;-36
2023/01/14 05:34:05;;;;;;;29.30;16.40;;;;;;;-2.84;84.66;99929.40;107282;1254;60018;-36
2023/01/14 05:36:32;;;;;;;25.50;16.00;;;;;;;-2.78;84.52;99929.70;107388;1256;60842;-36
2023/01/14 05:38:59;;;;;;;32.50;16.50;;;;;;;-2.76;84.53;99930.70;107362;1254;74474;-36
2023/01/14 05:41:26;;;;;;;33.90;16.70;;;;;;;-2.78;84.54;99925.61;107354;1256;67239;-36
2023/01/14 05:46:39;;;;;;;33.60;17.30;;;;;;;-2.81;84.42;99923.84;107266;1256;60534;-36
2023/01/14 05:49:06;;;;;;;30.50;17.00;;;;;;;-2.74;84.32;99927.16;107236;1254;61454;-36
2023/01/14 05:51:34;;;;;;;33.20;18.00;;;;;;;-2.69;84.31;99926.18;107271;1256;73366;-36
2023/01/14 05:54:01;;;;;;;31.30;18.20;;;;;;;-2.69;84.40;99926.98;107264;1254;70101;-36
2023/01/14 05:56:28;;;;;;;44.50;17.90;;;;;;;-2.70;84.38;99929.30;106615;1257;1003348;-36
2023/01/14 05:58:56;;;;;;;30.30;16.80;;;;;;;-2.75;84.17;99928.38;107358;1256;62326;-36
2023/01/14 06:06:55;;;;;;;30.20;16.80;;;;;;;-2.72;84.04;99929.36;107260;1259;69453;-38
2023/01/14 06:09:22;;;;;;;44.90;17.70;;;;;;;-2.75;84.40;99928.33;107315;1256;73450;-35
2023/01/14 06:12:01;;;;;;;29.90;16.00;;;;;;;-2.77;84.49;99929.38;107295;1257;60050;-35
2023/01/14 06:14:31;;;;;;;27.00;14.80;;;;;;;-2.78;84.40;99929.48;107327;1256;59487;-36
2023/01/14 06:16:59;;;;;;;22.70;13.70;;;;;;;-2.75;84.42;99931.52;107335;1254;73010;-37
2023/01/14 06:19:26;;;;;;;24.00;14.80;;;;;;;-2.74;84.18;99927.16;107372;1256;67773;-37
2023/01/14 06:21:53;;;;;;;28.40;14.80;;;;;;;-2.76;84.29;99926.85;107336;1256;75155;-36
2023/01/14 06:24:20;;;;;;;27.60;14.20;;;;;;;-2.79;84.42;99928.73;107408;1257;59746;-36
2023/01/14 06:26:47;;;;;;;25.80;14.50;;;;;;;-2.84;84.61;99930.29;107342;1257;62595;-36
2023/01/14 06:29:15;;;;;;;28.10;14.20;;;;;;;-2.83;84.59;99929.77;107285;1260;71973;-37
2023/01/14 06:31:42;;;;;;;30.00;14.10;;;;;;;-2.75;84.51;99924.52;107273;1256;70115;-37
2023/01/14 06:34:09;;;;;;;32.60;15.50;;;;;;;-2.72;84.57;99928.94;107270;1254;72598;-37
2023/01/14 06:36:37;;;;;;;31.30;16.70;;;;;;;-2.72;84.55;99932.96;107325;1255;60409;-37
2023/01/14 06:39:05;;;;;;;28.50;15.20;;;;;;;-2.75;84.69;99930.92;107279;1257;61616;-37
2023/01/14 06:41:33;;;;;;;26.20;15.10;;;;;;;-2.76;84.69;99930.39;107327;1255;74827;-37
2023/01/14 06:44:00;;;;;;;31.00;16.20;;;;;;;-2.71;84.65;99933.55;107329;1255;70649;-37
2023/01/14 06:46:29;;;;;;;36.40;16.80;;;;;;;-2.69;84.64;99935.20;107341;1259;73707;-37
2023/01/14 06:48:57;;;;;;;39.50;16.90;;;;;;;-2.70;84.76;99933.60;107426;1259;61496;-37
2023/01/14 06:51:25;;;;;;;35.90;17.10;;;;;;;-2.72;84.79;99933.29;106625;1259;1015240;-37
2023/01/14 06:53:53;;;;;;;26.00;15.20;;;;;;;-2.74;84.96;99936.13;107352;1259;73975;-36
2023/01/14 06:56:20;;;;;;;27.10;14.60;;;;;;;-2.71;84.76;99935.52;107352;1258;70673;-36
2023/01/14 06:58:48;;;;;;;26.30;14.90;;;;;;;-2.65;84.43;99939.64;107269;1254;74184;-36
2023/01/14 07:01:16;;;;;;;27.40;15.40;;;;;;;-2.61;84.68;99939.70;107396;1258;60417;-36
2023/01/14 07:03:44;;;;;;;27.60;15.80;;;;;;;-2.58;84.75;99941.94;107377;1254;61826;-36
2023/01/14 07:06:11;;;;;;;31.60;16.00;;;;;;;-2.58;84.57;99942.63;107332;1254;74945;-36
2023/01/14 07:08:38;;;;;;;27.70;15.80;;;;;;;-2.61;84.68;99943.63;107390;1259;69907;-36
2023/01/14 07:11:05;;;;;;;24.50;13.90;;;;;;;-2.58;84.54;99946.94;107288;1259;72791;-36
2023/01/14 07:13:33;;;;;;;30.20;15.20;;;;;;;-2.52;84.17;99951.84;107344;1260;60969;-36
2023/01/14 07:16:00;;;;;;;27.00;15.00;;;;;;;-2.53;84.12;99961.24;107366;1259;60316;-36
2023/01/14 07:18:27;;;;;;;25.60;15.00;;;;;;;-2.55;84.31;99960.48;107307;1254;75146;-37
2023/01/14 07:20:56;;;;;;;29.90;16.00;;;;;;;-2.56;84.34;99965.30;107268;1254;70143;-36
2023/01/14 07:23:23;;;;;;;28.00;16.00;;;;;;;-2.55;84.39;99968.66;107361;1258;72943;-36
2023/01/14 07:25:55;;;;;;;27.20;15.60;;;;;;;-2.47;84.23;99964.61;107333;1254;61335;-36
2023/01/14 07:28:26;;;;;;;29.40;15.80;;;;;;;-2.40;84.27;99970.10;106577;1257;1003577;-36
2023/01/14 07:30:54;;;;;;;27.60;16.20;;;;;;;-2.36;84.23;99970.81;107370;1259;73080;-36
2023/01/14 07:33:21;;;;;;;27.90;16.10;;;;;;;-2.31;84.20;99969.30;107270;1259;70220;-36
2023/01/14 07:35:52;;;;;;;33.00;15.60;;;;;;;-2.31;83.85;99975.08;107379;1254;72732;-36
2023/01/14 07:38:20;;;;;;;26.70;14.80;;;;;;;-2.33;83.40;99975.30;107249;1260;62667;-36
2023/01/14 07:40:48;;;;;;;27.40;14.50;;;;;;;-2.33;83.10;99975.61;107393;1259;61469;-36
2023/01/14 07:43:15;;;;;;;26.00;14.80;;;;;;;-2.31;83.21;99977.36;107409;1259;73833;-36
2023/01/14 07:45:42;;;;;;;24.20;12.30;;;;;;;-2.33;83.02;99975.77;107407;1254;69823;-36
2023/01/14 07:48:09;;;;;;;23.10;11.10;;;;;;;-2.41;82.80;99978.80;107400;1254;74411;-36
2023/01/14 07:50:36;;;;;;;18.80;11.30;;;;;;;-2.52;82.87;99975.05;106556;1254;1002988;-37
2023/01/14 07:53:04;;;;;;;17.20;10.80;;;;;;;-2.54;82.91;99978.54;107413;1254;60823;-37
2023/01/14 15:27:42;;;;;;;36.30;21.40;;;;;;;-0.99;87.73;100005.61;104899;1282;616044;-39
2023/01/14 15:30:25;;;;;;;37.70;21.50;;;;;;;-0.50;85.80;100009.24;106971;1263;208836;-40
2023/01/14 15:32:56;;;;;;;35.00;20.50;;;;;;;-0.56;86.29;100010.20;106764;1263;59883;-40
2023/01/14 15:35:33;;;;;;;32.60;19.30;;;;;;;-0.56;85.93;100008.14;106689;1263;73448;-40
2023/01/14 15:38:01;;;;;;;35.00;20.90;;;;;;;-0.50;86.00;100007.22;106839;1263;69110;-40
2023/01/14 15:40:30;;;;;;;;;;;;;;;-0.45;85.81;100002.29;106815;1264;71967;-40
2023/01/14 15:43:28;;;;;;;39.90;20.60;;;;;;;-0.49;85.65;100005.83;106775;1269;59480;-40
2023/01/14 15:45:56;;;;;;;39.90;22.00;;;;;;;-0.55;85.43;100001.27;106737;1269;61348;-40
2023/01/14 15:48:24;;;;;;;43.40;20.10;;;;;;;-0.59;84.94;100002.56;106834;1263;72414;-40
2023/01/14 15:51:01;;;;;;;39.20;20.60;;;;;;;-0.59;84.25;100001.80;106829;1263;69821;-40
2023/01/14 15:53:29;;;;;;;35.90;20.50;;;;;;;-0.55;84.07;100000.46;106802;1267;73682;-40
2023/01/14 15:56:02;;;;;;;35.90;20.60;;;;;;;-0.51;84.01;99998.02;106839;1264;60593;-40
2023/01/14 15:58:34;;;;;;;41.30;22.00;;;;;;;-0.52;83.66;99995.55;106885;1264;60924;-40
2023/01/14 16:01:26;;;;;;;44.40;23.30;;;;;;;-0.56;83.33;99997.11;106768;1266;74218;-41
2023/01/14 16:03:53;;;;;;;40.20;21.00;;;;;;;-0.55;83.33;100000.52;106832;1264;69667;-40
2023/01/14 16:06:33;;;;;;;39.50;21.20;;;;;;;-0.48;83.15;99998.79;106819;1264;73928;-40
2023/01/14 16:09:08;;;;;;;40.00;21.00;;;;;;;-0.40;82.68;99997.01;106838;1263;60658;-40
2023/01/14 16:11:37;;;;;;;37.90;21.70;;;;;;;-0.42;82.19;99991.69;106857;1263;61244;-40
2023/01/14 16:14:14;;;;;;;39.90;21.60;;;;;;;-0.43;82.49;99993.50;106059;1263;1003057;-40
2023/01/14 16:16:41;;;;;;;39.40;21.40;;;;;;;-0.44;82.16;99995.27;106669;1267;68351;-40
2023/01/14 16:19:09;;;;;;;40.10;21.70;;;;;;;-0.47;82.12;99990.70;106758;1263;74019;-40
2023/01/14 16:21:36;;;;;;;37.00;20.40;;;;;;;-0.43;81.89;99989.56;106834;1263;61864;-40
2023/01/14 16:24:06;;;;;;;40.10;21.40;;;;;;;-0.35;81.67;99990.45;106847;1263;61498;-40
2023/01/14 16:26:37;;;;;;;39.30;21.40;;;;;;;-0.33;81.29;99992.46;106868;1263;72488;-40
2023/01/14 16:29:04;;;;;;;38.10;21.50;;;;;;;-0.35;81.32;99993.05;106848;1263;69848;-40
2023/01/14 16:31:31;;;;;;;40.20;20.70;;;;;;;-0.48;80.88;99987.73;106848;1264;73946;-40
2023/01/14 16:33:58;;;;;;;42.50;23.30;;;;;;;-0.47;80.94;100003.00;106818;1269;60457;-40
2023/01/14 16:36:25;;;;;;;39.30;21.00;;;;;;;-0.49;81.21;100002.91;106855;1269;60414;-40
2023/01/14 16:38:53;;;;;;;36.80;21.40;;;;;;;-0.45;80.93;100001.77;106865;1269;74253;-40
2023/01/14 16:41:20;;;;;;;39.00;22.10;;;;;;;-0.36;80.47;100002.12;106920;1263;69582;-40
2023/01/14 16:43:48;;;;;;;40.30;21.60;;;;;;;-0.38;80.48;100008.13;106852;1263;73866;-40
2023/01/14 16:46:16;;;;;;;43.00;22.10;;;;;;;-0.41;80.71;100014.07;106847;1263;60479;-40
2023/01/14 16:48:43;;;;;;;40.80;22.20;;;;;;;-0.41;80.64;100016.98;106831;1263;61357;-40
2023/01/14 16:51:16;;;;;;;42.00;21.80;;;;;;;-0.43;80.68;100021.52;106065;1268;1003033;-40
2023/01/14 16:53:43;;;;;;;43.70;23.10;;;;;;;-0.41;80.73;100010.38;106836;1263;68561;-40
2023/01/14 16:56:10;;;;;;;37.60;21.60;;;;;;;-0.36;80.39;100003.92;106819;1264;72197;-40
2023/01/14 16:58:37;;;;;;;37.00;20.10;;;;;;;-0.27;80.08;100007.95;106888;1263;60660;-40
2023/01/14 17:01:05;;;;;;;36.60;20.40;;;;;;;-0.27;80.01;100012.95;106818;1263;61534;-40
2023/01/14 17:03:37;;;;;;;39.90;21.50;;;;;;;-0.29;80.12;100011.57;107721;1254;72696;-40
2023/01/14 17:06:05;;;;;;;37.30;20.60;;;;;;;-0.30;79.93;100017.81;107741;1254;68365;-40
2023/01/14 17:08:32;;;;;;;37.40;21.60;;;;;;;-0.34;79.96;100023.10;107630;1254;72802;-40
2023/01/14 17:11:00;;;;;;;34.10;19.70;;;;;;;-0.35;79.90;100025.55;107611;1253;62370;-40
2023/01/14 17:13:28;;;;;;;34.80;20.40;;;;;;;-0.32;79.63;100023.46;107715;1253;61582;-40
2023/01/14 17:16:00;;;;;;;35.10;20.00;;;;;;;-0.28;79.48;100022.77;107666;1253;72361;-40
2023/01/14 17:18:27;;;;;;;35.30;19.90;;;;;;;-0.28;79.35;100025.59;107542;1254;68539;-40
2023/01/14 17:20:54;;;;;;;35.50;21.00;;;;;;;-0.43;79.24;100009.48;107661;1253;73992;-40
2023/01/14 17:23:21;;;;;;;35.90;20.20;;;;;;;-0.42;79.27;100023.96;107697;1253;60477;-40
2023/01/14 17:25:48;;;;;;;40.20;21.90;;;;;;;-0.47;79.57;100016.89;107677;1254;59669;-40
2023/01/14 17:28:16;;;;;;;33.10;20.20;;;;;;;-0.50;79.66;100018.20;107678;1254;74085;-40
2023/01/14 17:30:43;;;;;;;34.80;19.70;;;;;;;-0.50;79.38;100015.38;107664;1256;69805;-40
2023/01/14 17:33:10;;;;;;;35.60;20.10;;;;;;;-0.45;79.47;100011.94;107683;1254;72615;-40
2023/01/14 17:35:37;;;;;;;37.90;21.20;;;;;;;-0.42;79.66;100009.95;107646;1257;60683;-40
2023/01/14 17:38:04;;;;;;;39.00;21.10;;;;;;;-0.41;79.59;100009.64;107720;1253;61521;-40
2023/01/14 17:40:33;;;;;;;38.50;21.60;;;;;;;-0.44;79.80;100005.60;107724;1256;74225;-40
2023/01/14 17:43:00;;;;;;;41.10;22.20;;;;;;;-0.46;79.72;100011.10;107709;1253;69824;-40
2023/01/14 17:45:27;;;;;;;34.30;20.70;;;;;;;-0.52;79.46;100013.70;107671;1254;73848;-40
2023/01/14 17:47:54;;;;;;;37.00;20.40;;;;;;;-0.54;79.76;100016.81;107700;1254;62086;-40
2023/01/14 17:50:22;;;;;;;34.90;20.90;;;;;;;-0.50;79.62;100019.04;107674;1252;60462;-40
2023/01/14 17:52:51;;;;;;;35.40;21.50;;;;;;;-0.47;80.06;100022.77;107698;1254;73874;-40
2023/01/14 17:55:19;;;;;;;31.30;17.30;;;;;;;-0.48;80.03;100025.91;107700;1254;67701;-40
2023/01/14 17:57:46;;;;;;;41.40;22.50;;;;;;;-0.51;80.24;100024.36;107715;1254;73856;-40
2023/01/14 18:00:17;;;;;;;42.90;23.10;;;;;;;-0.58;80.07;100023.20;107722;1253;60584;-40
2023/01/14 18:02:44;;;;;;;40.50;22.60;;;;;;;-0.60;80.51;100024.02;107717;1253;60288;-40
2023/01/14 18:05:13;;;;;;;39.60;21.60;;;;;;;-0.56;80.48;100025.08;107679;1254;74147;-40
2023/01/14 18:07:40;;;;;;;40.20;22.60;;;;;;;-0.48;80.48;100023.89;107742;1253;69707;-40
2023/01/14 18:10:08;;;;;;;41.80;22.90;;;;;;;-0.45;80.48;100021.48;107642;1254;73517;-40
2023/01/14 18:12:36;;;;;;;39.00;22.60;;;;;;;-0.46;80.61;100016.73;107698;1254;59608;-40
2023/01/14 18:15:04;;;;;;;47.10;24.30;;;;;;;-0.45;80.64;100014.81;107646;1253;61316;-40
2023/01/14 18:17:32;;;;;;;46.10;24.40;;;;;;;-0.42;80.86;100017.16;107686;1254;71925;-40
2023/01/14 18:19:59;;;;;;;43.70;23.50;;;;;;;-0.45;80.65;100013.92;107674;1253;69301;-40
2023/01/14 18:22:26;;;;;;;41.70;22.30;;;;;;;-0.40;80.43;100012.45;107689;1254;73692;-40
2023/01/14 18:24:53;;;;;;;43.90;23.20;;;;;;;-0.33;80.14;100012.49;107680;1253;60033;-40
2023/01/14 18:27:20;;;;;;;41.70;23.70;;;;;;;-0.34;80.24;100008.81;107648;1254;59945;-40
2023/01/14 18:29:50;;;;;;;48.70;25.30;;;;;;;-0.34;80.45;100004.94;107656;1254;74081;-40
2023/01/14 18:32:17;;;;;;;49.20;25.50;;;;;;;-0.33;80.44;100007.70;107721;1252;69886;-40
2023/01/14 18:34:45;;;;;;;48.60;25.20;;;;;;;-0.36;80.49;100006.70;107655;1254;74107;-40
2023/01/14 18:37:12;;;;;;;48.80;25.20;;;;;;;-0.39;80.46;100010.65;107688;1253;62654;-40
2023/01/14 18:39:39;;;;;;;42.50;24.10;;;;;;;-0.35;80.39;100005.79;107649;1253;61597;-40
2023/01/14 18:42:06;;;;;;;44.80;24.60;;;;;;;-0.28;80.34;100005.82;107707;1253;73155;-40
2023/01/14 18:44:34;;;;;;;43.30;23.30;;;;;;;-0.24;80.40;100008.64;107644;1253;69969;-40
2023/01/14 18:47:07;;;;;;;47.00;26.10;;;;;;;-0.25;80.44;100008.52;107669;1253;73951;-41
2023/01/14 18:49:36;;;;;;;54.70;26.00;;;;;;;-0.26;80.53;100006.08;107705;1254;60642;-40
2023/01/14 18:52:04;;;;;;;48.30;26.80;;;;;;;-0.27;80.51;100005.07;107663;1253;61420;-40
2023/01/14 18:54:31;;;;;;;43.30;23.90;;;;;;;-0.29;80.26;100006.84;107711;1253;74196;-40
2023/01/14 18:56:58;;;;;;;50.90;24.70;;;;;;;-0.27;80.10;100009.23;107689;1253;68569;-40
2023/01/14 18:59:25;;;;;;;50.00;25.10;;;;;;;-0.27;80.07;100011.24;107669;1256;74163;-40
2023/01/14 19:01:52;;;;;;;51.60;26.60;;;;;;;-0.28;80.42;100012.36;107686;1256;59871;-40
2023/01/14 19:04:19;;;;;;;51.30;25.70;;;;;;;-0.29;80.31;100012.00;107713;1254;61550;-40
2023/01/14 19:06:47;;;;;;;53.50;26.50;;;;;;;-0.35;80.36;100018.37;107683;1253;74249;-40
2023/01/14 19:09:14;;;;;;;46.20;24.50;;;;;;;-0.42;80.29;100017.31;107670;1254;68977;-40
2023/01/14 19:14:33;;;;;;;43.40;22.50;;;;;;;-0.34;80.46;100023.15;107653;1254;60881;-40
2023/01/14 19:17:01;;;;;;;44.60;24.50;;;;;;;-0.40;80.67;100025.63;107702;1253;59687;-40
2023/01/14 19:19:28;;;;;;;51.00;24.80;;;;;;;-0.49;80.90;100028.48;107766;1253;74258;-40
2023/01/14 19:21:56;;;;;;;53.80;26.10;;;;;;;-0.53;81.07;100031.09;107688;1254;67779;-40
2023/01/14 19:24:23;;;;;;;48.40;25.00;;;;;;;-0.59;81.39;100029.73;107325;1254;72923;-40
2023/01/14 19:26:50;;;;;;;44.00;24.00;;;;;;;-0.61;81.60;100025.52;107712;1253;60639;-40
2023/01/14 19:29:17;;;;;;;44.00;24.30;;;;;;;-0.51;81.55;100021.60;107665;1254;60850;-40
2023/01/14 19:31:44;;;;;;;42.10;23.60;;;;;;;-0.45;81.63;100021.04;107699;1253;74243;-40
2023/01/14 19:34:11;;;;;;;45.20;24.60;;;;;;;-0.43;82.00;100019.73;107714;1254;69790;-40
2023/01/14 19:36:39;;;;;;;47.60;24.80;;;;;;;-0.43;81.83;100019.23;107690;1253;73942;-40
2023/01/14 19:39:05;;;;;;;46.90;23.10;;;;;;;-0.47;81.81;100014.34;107658;1254;60299;-40
2023/01/14 19:41:34;;;;;;;39.70;22.40;;;;;;;-0.49;82.10;100008.77;106903;1252;1003602;-40
2023/01/14 19:44:01;;;;;;;41.40;22.80;;;;;;;-0.42;81.92;100004.86;107693;1256;75043;-40
2023/01/14 19:46:29;;;;;;;42.50;22.70;;;;;;;-0.38;81.92;100006.91;107729;1254;69730;-40
2023/01/14 19:48:56;;;;;;;44.40;24.00;;;;;;;-0.39;81.93;100004.59;107717;1254;73689;-40
2023/01/14 19:51:23;;;;;;;49.30;24.10;;;;;;;-0.41;81.95;100001.64;107642;1253;60795;-40
2023/01/14 19:53:51;;;;;;;45.70;24.40;;;;;;;-0.43;81.94;99996.54;107679;1256;60409;-40
2023/01/14 19:56:21;;;;;;;40.10;21.90;;;;;;;-0.49;81.90;99998.64;107670;1254;74803;-40
2023/01/14 19:58:50;;;;;;;47.30;23.50;;;;;;;-0.44;82.07;99998.77;107694;1254;67275;-40
2023/01/14 20:01:21;;;;;;;36.70;21.30;;;;;;;-0.37;81.68;100001.31;107741;1254;72103;-40
2023/01/14 20:03:52;;;;;;;40.80;21.60;;;;;;;-0.39;81.71;100004.68;107635;1256;59679;-40
2023/01/14 20:06:21;;;;;;;44.00;22.30;;;;;;;-0.41;81.96;100008.41;107750;1254;60347;-40
2023/01/14 20:08:49;;;;;;;44.40;21.60;;;;;;;-0.41;82.21;100004.47;107693;1254;74810;-40
2023/01/14 20:11:16;;;;;;;34.40;20.20;;;;;;;-0.40;82.18;100007.67;107693;1254;69686;-40
2023/01/14 20:13:44;;;;;;;35.10;19.30;;;;;;;-0.35;81.97;100009.62;107665;1254;73756;-40
2023/01/14 20:16:12;;;;;;;34.30;18.80;;;;;;;-0.28;81.93;100003.27;107702;1254;60651;-40
2023/01/14 20:18:39;;;;;;;37.50;20.40;;;;;;;-0.25;81.81;100002.35;107692;1254;60406;-40
2023/01/14 20:21:14;;;;;;;35.30;18.90;;;;;;;-0.25;81.65;100001.50;107675;1254;74767;-40
2023/01/14 20:23:41;;;;;;;39.30;20.80;;;;;;;-0.26;81.64;100005.27;107687;1254;69928;-40
2023/01/14 20:26:13;;;;;;;31.10;18.30;;;;;;;-0.27;81.96;100001.66;107689;1253;71500;-40
2023/01/14 20:28:40;;;;;;;31.70;18.50;;;;;;;-0.21;81.64;100000.56;107648;1253;61316;-40
2023/01/14 20:31:10;;;;;;;37.70;18.10;;;;;;;-0.16;81.34;100000.48;107671;1253;60789;-40
2023/01/14 20:33:37;;;;;;;33.60;18.90;;;;;;;-0.15;81.41;99998.09;107703;1254;73038;-40
2023/01/14 20:36:05;;;;;;;34.20;18.50;;;;;;;-0.17;81.31;100001.45;107667;1254;69922;-40
2023/01/14 20:38:34;;;;;;;35.80;18.50;;;;;;;-0.23;81.45;100005.52;107686;1253;72665;-40
2023/01/14 20:41:02;;;;;;;30.90;17.90;;;;;;;-0.32;81.58;100008.82;107663;1255;60210;-40
2023/01/14 20:43:29;;;;;;;28.40;17.50;;;;;;;-0.38;81.46;100009.77;107732;1256;61513;-40
2023/01/14 20:45:56;;;;;;;33.10;18.40;;;;;;;-0.35;81.71;100013.25;107686;1253;75010;-40
2023/01/14 20:48:24;;;;;;;32.00;18.30;;;;;;;-0.32;81.94;100017.27;107685;1253;69741;-40
2023/01/14 20:50:53;;;;;;;35.40;19.00;;;;;;;-0.35;81.79;100021.35;107649;1254;73612;-40
2023/01/14 20:53:24;;;;;;;39.90;19.90;;;;;;;-0.41;82.27;100018.01;107693;1253;60577;-40
2023/01/14 20:55:52;;;;;;;32.20;18.60;;;;;;;-0.49;82.40;100020.86;107523;1253;60363;-40
2023/01/14 20:59:22;;;;;;;32.00;17.20;;;;;;;-0.47;82.59;100013.34;107739;1254;74032;-40
2023/01/14 21:01:15;;;;;;;31.40;18.30;;;;;;;-0.40;82.40;100015.08;107680;1256;69913;-40
2023/01/14 21:03:43;;;;;;;31.70;18.10;;;;;;;-0.39;82.96;100012.52;105445;1253;1003727;-40
2023/01/14 21:06:12;;;;;;;37.30;17.50;;;;;;;-0.37;82.91;100008.62;107706;1254;60431;-40
2023/01/14 21:08:42;;;;;;;34.00;19.10;;;;;;;-0.34;83.08;100010.36;107681;1254;60568;-40
2023/01/14 21:11:15;;;;;;;24.40;12.90;;;;;;;-0.38;82.76;100012.45;107693;1253;74970;-41
2023/01/14 21:25:08;;;;;;;36.30;18.40;;;;;;;-0.25;82.93;100005.98;107698;1254;74978;-40
2023/01/14 21:27:35;;;;;;;31.10;18.00;;;;;;;-0.28;82.84;100006.61;107707;1254;70097;-39
2023/01/14 21:30:04;;;;;;;27.60;16.30;;;;;;;-0.23;82.79;100010.60;106200;1255;1003093;-39
2023/01/14 21:32:31;;;;;;;20.60;12.60;;;;;;;-0.17;82.68;100015.20;107663;1253;60585;-38